Time;durP1;ratioP1;P1;durP2;ratioP2;P2;SDS_P1;SDS_P2;PMS_P1;PMS_P2;Temp;Humidity;BMP_temperature;BMP_pressure;BME280_temperature;BME280_humidity;BME280_pressure;Samples;Min_cycle;Max_cycle;Signal;HPM_P1;HPM_P2
2023/03/29 00:01:01;;;;;;;4.40;1.40;;;;;;;4.56;45.33;98453.75;5034561;28;20637;-59
2023/03/29 00:03:27;;;;;;;1.60;1.38;;;;;;;4.69;45.67;98477.97;5033476;28;20179;-59
2023/03/29 00:05:56;;;;;;;4.78;1.50;;;;;;;4.90;45.77;98520.56;5034436;28;20236;-59
2023/03/29 00:08:24;;;;;;;1.33;1.23;;;;;;;4.43;45.90;98450.06;5034407;28;20180;-59
2023/03/29 00:10:50;;;;;;;1.63;1.30;;;;;;;4.79;46.15;98517.66;5034384;28;20269;-59
2023/03/29 00:13:16;;;;;;;1.35;1.30;;;;;;;4.47;46.30;98472.09;5034326;28;20175;-59
2023/03/29 00:15:42;;;;;;;1.60;1.50;;;;;;;4.64;46.75;98515.75;5034396;28;20175;-59
2023/03/29 00:18:08;;;;;;;1.35;1.35;;;;;;;4.41;46.49;98492.84;5034246;28;20197;-59
2023/03/29 00:20:33;;;;;;;1.55;1.45;;;;;;;4.51;46.68;98496.69;5034106;28;20699;-59
2023/03/29 00:22:59;;;;;;;2.35;1.52;;;;;;;4.28;46.34;98440.50;5033881;28;20166;-59
2023/03/29 00:25:24;;;;;;;1.77;1.50;;;;;;;4.38;46.52;98446.88;5051552;28;20190;-59
2023/03/29 00:27:49;;;;;;;1.58;1.48;;;;;;;4.74;46.29;98547.78;5051643;28;20182;-59
2023/03/29 00:30:15;;;;;;;1.70;1.60;;;;;;;4.34;46.75;98480.38;5051569;28;20201;-59
2023/03/29 00:32:41;;;;;;;1.73;1.70;;;;;;;4.45;46.79;98502.09;5051439;28;20617;-59
2023/03/29 00:35:07;;;;;;;2.90;1.50;;;;;;;4.79;46.66;98548.41;5051496;28;20194;-59
2023/03/29 00:37:33;;;;;;;2.33;1.45;;;;;;;4.27;46.27;98466.16;5051419;28;20185;-59
2023/03/29 00:39:59;;;;;;;1.58;1.52;;;;;;;4.72;46.32;98538.50;5051194;28;20221;-59
2023/03/29 00:42:25;;;;;;;1.45;1.42;;;;;;;4.78;46.55;98543.38;5051267;28;20189;-59
2023/03/29 00:45:02;;;;;;;2.50;1.42;;;;;;;4.77;46.31;98557.06;5051197;28;20225;-59
2023/03/29 00:47:33;;;;;;;1.30;1.30;;;;;;;4.16;45.90;98445.31;5051260;28;20169;-59
2023/03/29 00:50:04;;;;;;;1.88;1.77;;;;;;;4.69;46.09;98518.97;5051201;28;20176;-59
2023/03/29 00:52:32;;;;;;;1.33;1.33;;;;;;;4.58;45.58;98487.84;5051164;28;20227;-59
2023/03/29 00:55:01;;;;;;;1.70;1.60;;;;;;;4.75;45.66;98525.53;5050846;28;20184;-59
2023/03/29 00:57:29;;;;;;;1.67;1.58;;;;;;;4.43;45.29;98480.81;5032180;28;20246;-59
2023/03/29 00:59:57;;;;;;;2.92;1.33;;;;;;;4.73;45.21;98540.97;5030884;28;20226;-59
2023/03/29 01:02:26;;;;;;;2.20;1.70;;;;;;;4.73;45.51;98540.97;5030919;28;20190;-59
2023/03/29 01:05:04;;;;;;;1.42;1.33;;;;;;;4.54;45.48;98529.84;5030950;28;20225;-59
2023/03/29 01:08:07;;;;;;;1.90;1.80;;;;;;;4.73;45.24;98535.84;5030898;28;20191;-59
2023/03/29 01:10:48;;;;;;;1.48;1.38;;;;;;;4.64;45.76;98541.38;4991416;28;20195;-60
2023/03/29 01:13:19;;;;;;;1.40;1.30;;;;;;;4.63;45.88;98546.56;4991435;28;20669;-59
2023/03/29 01:15:46;;;;;;;1.75;1.63;;;;;;;4.49;45.33;98518.97;4991009;28;20192;-60
2023/03/29 01:18:12;;;;;;;1.92;1.50;;;;;;;4.34;44.88;98486.34;4991221;28;20278;-59
2023/03/29 01:21:08;;;;;;;1.70;1.60;;;;;;;4.68;45.50;98529.28;4991187;28;20797;-59
2023/03/29 01:24:08;;;;;;;4.22;1.58;;;;;;;4.77;44.51;98551.91;4986616;28;20714;-59
2023/03/29 01:27:02;;;;;;;1.65;1.50;;;;;;;4.68;44.99;98548.06;4991159;28;20572;-59
2023/03/29 01:29:47;;;;;;;2.40;1.38;;;;;;;4.69;45.14;98531.78;4989099;28;20697;-59
2023/03/29 01:32:18;;;;;;;2.45;1.42;;;;;;;4.20;44.99;98465.59;4952496;29;20683;-59
2023/03/29 01:34:59;;;;;;;2.45;1.50;;;;;;;4.81;44.60;98546.63;4952504;29;20189;-60
2023/03/29 01:37:36;;;;;;;2.15;1.45;;;;;;;4.50;44.20;98507.81;4952280;29;20193;-59
2023/03/29 01:40:04;;;;;;;1.55;1.45;;;;;;;4.48;43.99;98476.31;4895070;29;20218;-59
2023/03/29 01:42:40;;;;;;;1.30;1.30;;;;;;;4.78;44.71;98533.91;4895152;29;20191;-59
2023/03/29 01:45:46;;;;;;;1.48;1.10;;;;;;;4.74;43.99;98560.59;4867226;29;20192;-59
2023/03/29 01:48:20;;;;;;;2.55;1.50;;;;;;;4.82;44.00;98565.38;4895049;29;20206;-59
2023/03/29 01:50:54;;;;;;;1.70;1.60;;;;;;;4.18;43.64;98472.50;4895079;29;20187;-59
2023/03/29 01:53:31;;;;;;;1.92;1.75;;;;;;;4.70;43.86;98561.63;4895012;29;20194;-59
2023/03/29 01:56:03;;;;;;;1.50;1.40;;;;;;;4.09;44.39;98454.16;4913747;29;20210;-59
2023/03/29 01:58:34;;;;;;;1.88;1.77;;;;;;;4.57;43.68;98534.03;4913855;29;20290;-59
2023/03/29 02:01:04;;;;;;;1.98;1.52;;;;;;;4.54;43.62;98537.53;4927342;29;20186;-59
2023/03/29 02:03:33;;;;;;;1.60;1.50;;;;;;;4.54;43.81;98545.22;4956275;28;20683;-59
2023/03/29 02:05:59;;;;;;;1.42;1.38;;;;;;;4.09;43.93;98467.75;4971184;28;20223;-59
2023/03/29 02:08:27;;;;;;;1.40;1.40;;;;;;;4.65;43.62;98557.56;4971186;28;20191;-59
2023/03/29 02:10:52;;;;;;;2.33;1.55;;;;;;;4.49;43.27;98526.66;4971098;28;20687;-59
2023/03/29 02:13:18;;;;;;;1.80;1.70;;;;;;;4.29;43.32;98502.78;4971383;28;20180;-59
2023/03/29 02:15:46;;;;;;;1.50;1.50;;;;;;;4.68;43.26;98578.81;4971088;28;20275;-59
2023/03/29 02:18:15;;;;;;;1.67;1.60;;;;;;;4.64;43.24;98567.00;5002375;28;20190;-59
2023/03/29 02:20:46;;;;;;;1.63;1.52;;;;;;;4.71;43.38;98582.94;5009971;28;20199;-59
2023/03/29 02:23:20;;;;;;;1.73;1.63;;;;;;;4.41;43.26;98536.41;5014951;28;20201;-59
2023/03/29 02:25:49;;;;;;;3.08;1.90;;;;;;;4.46;43.54;98564.38;5029762;28;20220;-59
2023/03/29 02:28:15;;;;;;;1.40;1.40;;;;;;;4.51;43.34;98576.13;5035596;28;20197;-59
2023/03/29 02:30:49;;;;;;;1.80;1.70;;;;;;;4.67;43.42;98602.75;5036281;28;20235;-59
2023/03/29 02:33:24;;;;;;;1.83;1.73;;;;;;;4.72;43.34;98600.81;5036298;28;20288;-59
2023/03/29 02:36:03;;;;;;;2.28;1.70;;;;;;;4.37;43.52;98555.34;5036291;28;20235;-59
2023/03/29 02:38:31;;;;;;;1.80;1.70;;;;;;;4.02;43.77;98493.72;5036201;28;20186;-59
2023/03/29 02:40:58;;;;;;;2.08;1.67;;;;;;;4.00;44.06;98515.94;5036210;28;20228;-59
2023/03/29 02:43:26;;;;;;;2.00;1.90;;;;;;;4.05;44.42;98525.13;5036121;28;20186;-59
2023/03/29 02:45:52;;;;;;;1.60;1.60;;;;;;;4.31;44.17;98570.16;5036312;28;20575;-59
2023/03/29 02:48:22;;;;;;;2.22;1.90;;;;;;;4.01;44.06;98512.50;5036113;28;20187;-59
2023/03/29 02:50:52;;;;;;;3.30;2.10;;;;;;;3.99;44.24;98515.13;5036082;28;20201;-59
2023/03/29 02:53:29;;;;;;;1.60;1.60;;;;;;;3.90;44.25;98535.16;5039055;28;20210;-59
2023/03/29 02:55:54;;;;;;;2.22;1.70;;;;;;;4.04;44.56;98548.22;5035702;28;20621;-59
2023/03/29 02:58:27;;;;;;;2.53;2.28;;;;;;;4.33;44.64;98601.66;5036041;28;20277;-59
2023/03/29 03:00:55;;;;;;;1.98;1.88;;;;;;;4.17;44.26;98563.03;5036025;28;20221;-59
2023/03/29 03:03:20;;;;;;;2.65;2.00;;;;;;;4.01;44.45;98549.16;5035977;28;20216;-59
2023/03/29 03:05:46;;;;;;;3.47;2.42;;;;;;;4.26;44.50;98593.38;5035994;28;20228;-59
2023/03/29 03:08:12;;;;;;;3.50;1.80;;;;;;;4.00;44.82;98552.63;5035981;28;20722;-59
2023/03/29 03:10:38;;;;;;;2.85;2.63;;;;;;;4.23;44.72;98593.50;5036049;28;20186;-59
2023/03/29 03:13:04;;;;;;;2.10;2.00;;;;;;;4.03;44.79;98567.84;5035889;28;20594;-59
2023/03/29 03:15:31;;;;;;;2.50;2.40;;;;;;;4.03;44.92;98582.41;5035994;28;20243;-59
2023/03/29 03:17:57;;;;;;;1.98;1.88;;;;;;;4.26;44.68;98631.78;5035903;28;20190;-59
2023/03/29 03:20:22;;;;;;;3.33;1.90;;;;;;;4.04;44.79;98590.03;5035850;28;20202;-59
2023/03/29 03:22:48;;;;;;;2.30;2.20;;;;;;;3.87;44.48;98582.19;5035968;28;20700;-59
2023/03/29 03:25:15;;;;;;;3.67;2.15;;;;;;;4.14;44.95;98627.16;5035955;28;20579;-59
2023/03/29 03:27:41;;;;;;;2.60;2.25;;;;;;;3.61;44.94;98543.16;5052310;28;20288;-59
2023/03/29 03:30:08;;;;;;;2.10;2.00;;;;;;;4.07;44.39;98610.38;5055823;28;20181;-59
2023/03/29 03:32:34;;;;;;;2.80;2.60;;;;;;;4.18;44.20;98640.66;5055759;28;20619;-59
2023/03/29 03:34:59;;;;;;;2.30;2.20;;;;;;;3.97;44.76;98598.00;5055766;28;20174;-59
2023/03/29 03:37:26;;;;;;;2.50;2.30;;;;;;;3.65;44.56;98544.66;5055793;28;20644;-59
2023/03/29 03:39:52;;;;;;;3.47;1.90;;;;;;;4.26;44.76;98647.16;5052409;28;20217;-59
2023/03/29 03:42:18;;;;;;;2.17;2.08;;;;;;;4.30;44.39;98646.13;5052543;28;20223;-59
2023/03/29 03:44:43;;;;;;;3.85;2.33;;;;;;;3.61;44.65;98546.50;5038535;28;20655;-59
2023/03/29 03:47:11;;;;;;;2.42;2.15;;;;;;;4.31;44.55;98665.72;5034942;28;20178;-59
2023/03/29 03:49:36;;;;;;;3.45;2.45;;;;;;;3.99;44.51;98616.69;5034853;28;20175;-59
2023/03/29 03:52:01;;;;;;;3.00;2.70;;;;;;;3.72;44.77;98572.53;5033587;28;20185;-59
2023/03/29 03:54:27;;;;;;;4.90;2.80;;;;;;;4.22;45.05;98655.88;5034841;28;20553;-59
2023/03/29 03:56:53;;;;;;;4.13;3.08;;;;;;;3.72;44.82;98562.28;5034831;28;20226;-59
2023/03/29 03:59:18;;;;;;;2.72;2.53;;;;;;;4.14;44.51;98647.63;5034659;28;20198;-59
2023/03/29 04:01:44;;;;;;;4.15;2.92;;;;;;;3.67;45.18;98564.19;5034968;28;20271;-59
2023/03/29 04:04:10;;;;;;;2.90;2.70;;;;;;;4.02;45.06;98648.09;5034599;28;20198;-59
2023/03/29 04:06:36;;;;;;;2.70;2.50;;;;;;;3.70;44.84;98578.59;5034301;28;20179;-59
2023/03/29 04:09:02;;;;;;;2.75;2.58;;;;;;;4.36;44.75;98691.16;5031955;28;20645;-59
2023/03/29 04:11:28;;;;;;;3.08;2.58;;;;;;;4.25;44.86;98676.22;5032028;28;20224;-59
2023/03/29 04:13:56;;;;;;;2.80;2.17;;;;;;;3.71;44.66;98609.25;5031966;28;20189;-59
2023/03/29 04:16:22;;;;;;;4.28;3.00;;;;;;;3.69;45.19;98608.47;5031876;28;20193;-59
2023/03/29 04:18:48;;;;;;;2.65;2.45;;;;;;;3.67;44.90;98601.75;5031798;28;20210;-60
2023/03/29 04:21:14;;;;;;;2.75;2.30;;;;;;;3.60;44.83;98588.34;5032188;28;20185;-60
2023/03/29 04:23:41;;;;;;;2.50;2.30;;;;;;;3.68;44.85;98611.09;5031736;28;20182;-60
2023/03/29 04:26:07;;;;;;;3.45;2.70;;;;;;;3.72;44.92;98608.34;5031723;28;20282;-60
2023/03/29 04:28:33;;;;;;;2.30;2.20;;;;;;;4.18;44.85;98682.47;5031685;28;20625;-60
2023/03/29 04:30:58;;;;;;;2.22;2.13;;;;;;;3.72;44.77;98613.47;5031667;28;20260;-60
2023/03/29 04:33:24;;;;;;;2.20;2.10;;;;;;;4.28;44.69;98695.75;5031611;28;20178;-60
2023/03/29 04:35:49;;;;;;;2.70;2.50;;;;;;;4.03;44.87;98636.16;5031539;28;20269;-60
2023/03/29 04:38:15;;;;;;;2.45;2.20;;;;;;;4.02;44.41;98643.00;5031828;28;20205;-60
2023/03/29 04:40:40;;;;;;;2.47;2.38;;;;;;;3.87;44.73;98628.25;5033014;28;20241;-60
2023/03/29 04:43:06;;;;;;;2.58;2.40;;;;;;;3.85;44.54;98637.69;5033833;28;20544;-60
2023/03/29 04:45:32;;;;;;;2.90;2.55;;;;;;;4.01;44.41;98666.94;5033779;28;20313;-60
2023/03/29 04:48:00;;;;;;;2.50;2.28;;;;;;;4.39;44.96;98763.63;5033647;28;20179;-60
2023/03/29 04:50:26;;;;;;;2.25;2.15;;;;;;;4.25;44.87;98706.94;5033165;28;20182;-60
2023/03/29 04:52:52;;;;;;;2.97;2.72;;;;;;;4.04;45.17;98686.47;5033650;28;20304;-60
2023/03/29 04:55:17;;;;;;;3.22;2.70;;;;;;;4.01;45.03;98682.28;5033277;28;20541;-60
2023/03/29 04:57:46;;;;;;;2.63;2.42;;;;;;;3.92;45.29;98669.81;5033602;28;20229;-60
2023/03/29 05:00:15;;;;;;;2.97;2.17;;;;;;;3.94;45.19;98664.66;5033196;28;20583;-60
2023/03/29 05:02:45;;;;;;;2.72;2.58;;;;;;;4.39;45.21;98735.44;5033152;28;20568;-60
2023/03/29 05:05:11;;;;;;;2.83;2.63;;;;;;;3.80;45.64;98642.13;5033379;28;20186;-60
2023/03/29 05:07:37;;;;;;;2.17;2.08;;;;;;;4.24;45.28;98684.78;5033257;28;20191;-60
2023/03/29 05:10:03;;;;;;;2.28;2.17;;;;;;;4.42;44.70;98704.56;5033276;28;20712;-60
2023/03/29 05:12:29;;;;;;;3.00;2.63;;;;;;;4.52;44.79;98713.56;5033235;28;20178;-60
2023/03/29 05:14:55;;;;;;;3.50;2.45;;;;;;;4.26;44.86;98677.06;5033207;28;20560;-60
2023/03/29 05:17:21;;;;;;;2.83;2.42;;;;;;;3.98;44.91;98631.19;5050811;28;20699;-60
2023/03/29 05:19:46;;;;;;;3.40;2.28;;;;;;;3.89;44.57;98628.16;5050361;28;20218;-59
2023/03/29 05:22:12;;;;;;;2.53;2.20;;;;;;;4.19;44.99;98683.31;5070358;28;20611;-59
2023/03/29 05:24:38;;;;;;;5.05;2.58;;;;;;;4.48;44.85;98729.13;5070446;28;20251;-60
2023/03/29 05:27:04;;;;;;;2.83;2.50;;;;;;;4.07;45.06;98651.34;5070513;28;20574;-60
2023/03/29 05:29:31;;;;;;;2.95;2.60;;;;;;;4.48;44.83;98694.06;5070259;28;20204;-60
2023/03/29 05:31:58;;;;;;;2.97;2.78;;;;;;;4.63;44.21;98698.59;5070372;28;20217;-60
2023/03/29 05:34:24;;;;;;;3.15;2.65;;;;;;;4.59;43.96;98696.19;5070262;28;20223;-61
2023/03/29 05:36:50;;;;;;;2.65;2.45;;;;;;;4.44;44.16;98684.84;5070241;28;20228;-61
2023/03/29 05:39:16;;;;;;;3.08;2.80;;;;;;;4.36;43.86;98668.09;5070248;28;20216;-60
2023/03/29 05:41:41;;;;;;;3.63;2.33;;;;;;;4.88;44.06;98767.63;5050118;28;20182;-60
2023/03/29 05:44:07;;;;;;;7.55;2.08;;;;;;;4.69;43.86;98731.66;5070125;28;20185;-61
2023/03/29 05:46:33;;;;;;;2.80;2.03;;;;;;;4.81;43.98;98764.50;5070095;28;20717;-61
2023/03/29 05:48:58;;;;;;;3.05;2.53;;;;;;;4.64;43.83;98715.63;5070150;28;20683;-59
2023/03/29 05:51:24;;;;;;;2.40;2.30;;;;;;;4.69;43.34;98730.81;5054821;28;20186;-59
2023/03/29 05:53:50;;;;;;;2.53;2.20;;;;;;;4.80;43.35;98733.78;5045814;28;20201;-60
2023/03/29 05:56:16;;;;;;;2.63;2.42;;;;;;;5.09;43.40;98752.22;5029737;28;20198;-59
2023/03/29 05:58:42;;;;;;;2.00;1.90;;;;;;;5.14;42.34;98757.16;5029857;28;20302;-59
2023/03/29 06:01:16;;;;;;;3.50;2.55;;;;;;;4.82;42.57;98707.19;5029238;28;20185;-59
2023/03/29 06:03:42;;;;;;;2.15;2.05;;;;;;;5.01;42.52;98725.25;5029549;28;20186;-59
2023/03/29 06:06:09;;;;;;;2.25;2.08;;;;;;;4.84;42.70;98682.31;5029660;28;20195;-59
2023/03/29 06:08:35;;;;;;;2.35;2.20;;;;;;;5.49;41.76;98775.28;5029725;28;20229;-59
2023/03/29 06:11:04;;;;;;;3.28;1.90;;;;;;;5.52;41.56;98779.47;5029719;28;20178;-59
2023/03/29 06:13:30;;;;;;;2.40;2.30;;;;;;;5.41;40.87;98756.84;5021368;28;20717;-59
2023/03/29 06:15:56;;;;;;;1.77;1.65;;;;;;;5.23;41.36;98723.41;5014710;28;20253;-59
2023/03/29 06:18:22;;;;;;;2.17;1.80;;;;;;;5.38;41.51;98751.00;5009891;28;20710;-59
2023/03/29 06:20:52;;;;;;;1.80;1.70;;;;;;;5.01;40.87;98692.72;5013903;28;20218;-59
2023/03/29 06:23:22;;;;;;;2.03;1.92;;;;;;;5.69;41.01;98785.56;5032025;28;20178;-59
2023/03/29 06:25:50;;;;;;;1.80;1.70;;;;;;;5.33;41.12;98717.00;5031879;28;20178;-59
2023/03/29 06:28:16;;;;;;;2.17;2.05;;;;;;;5.81;40.87;98792.75;5032110;28;20183;-59
2023/03/29 06:30:42;;;;;;;3.80;1.83;;;;;;;5.96;40.29;98807.50;5029642;28;20190;-59
2023/03/29 06:33:09;;;;;;;1.75;1.67;;;;;;;5.88;40.41;98737.66;5029763;28;20236;-59
2023/03/29 06:35:36;;;;;;;1.90;1.77;;;;;;;6.14;39.95;98750.19;5029709;28;20189;-59
2023/03/29 06:38:03;;;;;;;2.35;1.85;;;;;;;5.98;39.34;98712.41;5029004;28;20720;-58
2023/03/29 06:40:29;;;;;;;1.83;1.73;;;;;;;6.30;39.47;98781.97;5029324;28;20217;-58
2023/03/29 06:42:58;;;;;;;2.45;1.90;;;;;;;5.97;39.69;98731.28;5029774;28;20574;-59
2023/03/29 06:45:29;;;;;;;2.15;1.95;;;;;;;6.40;39.96;98778.06;5029518;28;20194;-59
2023/03/29 06:47:55;;;;;;;1.92;1.83;;;;;;;6.29;38.96;98752.03;5029671;28;20170;-59
2023/03/29 06:50:22;;;;;;;2.05;1.95;;;;;;;6.44;39.23;98784.75;5029622;28;20212;-59
2023/03/29 06:52:47;;;;;;;2.88;2.00;;;;;;;6.52;39.16;98807.53;5029615;28;20187;-59
2023/03/29 06:55:14;;;;;;;2.53;1.90;;;;;;;6.43;39.55;98788.22;5029480;28;20190;-59
2023/03/29 06:57:41;;;;;;;1.60;1.50;;;;;;;6.57;39.05;98805.56;5029677;28;20175;-59
2023/03/29 07:00:18;;;;;;;2.75;1.88;;;;;;;6.42;38.40;98754.88;5029454;28;20208;-59
2023/03/29 07:02:48;;;;;;;2.58;1.48;;;;;;;6.84;37.99;98825.72;5031489;28;20212;-59
2023/03/29 07:05:14;;;;;;;1.70;1.60;;;;;;;6.67;37.70;98769.09;5029621;28;20656;-59
2023/03/29 07:07:55;;;;;;;2.20;2.10;;;;;;;6.44;37.27;98760.78;5029370;28;20191;-59
2023/03/29 07:10:27;;;;;;;1.80;1.70;;;;;;;6.65;37.11;98799.16;5029470;28;20190;-59
2023/03/29 07:12:53;;;;;;;1.83;1.67;;;;;;;6.21;37.13;98746.44;5030126;28;20282;-59
2023/03/29 07:15:20;;;;;;;1.75;1.63;;;;;;;6.38;36.44;98750.78;5033106;28;20240;-58
2023/03/29 07:17:49;;;;;;;2.53;1.77;;;;;;;6.65;36.60;98835.16;5031620;28;20190;-59
2023/03/29 07:20:15;;;;;;;4.80;1.40;;;;;;;6.48;36.11;98806.81;5033015;28;20221;-59
2023/03/29 07:22:42;;;;;;;3.30;1.50;;;;;;;6.20;36.28;98741.34;5033082;28;20597;-60
2023/03/29 07:25:09;;;;;;;1.80;1.67;;;;;;;6.54;35.78;98780.81;5032980;28;20256;-59
2023/03/29 07:27:39;;;;;;;4.05;1.73;;;;;;;6.97;36.18;98826.78;5031477;28;20213;-60
2023/03/29 07:30:09;;;;;;;1.88;1.40;;;;;;;6.88;34.56;98796.34;5072598;28;20258;-59
2023/03/29 07:32:37;;;;;;;1.50;1.40;;;;;;;7.07;34.09;98802.28;5072760;28;20681;-59
2023/03/29 07:35:04;;;;;;;1.73;1.63;;;;;;;7.28;33.70;98816.69;5013310;28;20187;-59
2023/03/29 07:37:33;;;;;;;3.00;1.30;;;;;;;6.67;33.34;98756.22;5032795;28;20201;-59
2023/03/29 07:39:59;;;;;;;1.23;1.23;;;;;;;7.05;32.71;98829.81;5032633;28;20621;-59
2023/03/29 07:42:25;;;;;;;1.40;1.30;;;;;;;7.12;33.49;98831.19;5032699;28;20405;-59
2023/03/29 07:44:50;;;;;;;1.75;1.30;;;;;;;7.19;32.71;98831.72;5032653;28;20314;-59
2023/03/29 07:47:16;;;;;;;1.17;1.05;;;;;;;6.76;32.21;98773.78;5032660;28;20265;-59
2023/03/29 07:49:42;;;;;;;2.03;1.30;;;;;;;6.85;31.95;98780.22;5032610;28;20202;-59
2023/03/29 07:52:07;;;;;;;1.02;1.02;;;;;;;7.34;32.18;98849.84;5032442;28;20221;-59
2023/03/29 07:54:33;;;;;;;2.40;1.30;;;;;;;7.30;32.57;98825.16;5032410;28;20238;-59
2023/03/29 07:56:59;;;;;;;2.70;1.58;;;;;;;7.30;31.80;98807.16;5032310;28;20206;-59
2023/03/29 07:59:24;;;;;;;1.30;1.20;;;;;;;7.44;31.45;98820.16;5032168;28;20214;-59
2023/03/29 08:01:50;;;;;;;1.98;1.80;;;;;;;6.91;30.53;98770.50;5000138;28;20611;-59
2023/03/29 08:04:16;;;;;;;1.15;1.15;;;;;;;7.14;31.20;98808.81;4992897;28;20730;-59
2023/03/29 08:06:42;;;;;;;1.17;1.08;;;;;;;7.14;30.59;98803.66;5023954;28;20294;-59
2023/03/29 08:09:07;;;;;;;1.20;1.20;;;;;;;6.84;30.55;98761.41;5032198;28;20186;-59
2023/03/29 08:11:33;;;;;;;1.02;1.02;;;;;;;6.73;31.08;98744.81;5032168;28;20205;-59
2023/03/29 08:13:58;;;;;;;1.10;1.10;;;;;;;7.29;30.65;98820.09;5032120;28;20186;-59
2023/03/29 08:16:24;;;;;;;1.40;1.30;;;;;;;6.83;30.68;98736.56;5032041;28;20194;-59
2023/03/29 08:18:49;;;;;;;1.80;1.50;;;;;;;7.16;30.90;98832.72;5011969;28;20191;-60
2023/03/29 08:21:15;;;;;;;1.35;1.25;;;;;;;6.66;30.91;98749.44;5026815;28;20189;-59
2023/03/29 08:23:40;;;;;;;1.40;1.27;;;;;;;6.90;31.62;98793.69;5031910;28;20693;-59
2023/03/29 08:26:08;;;;;;;1.88;1.45;;;;;;;7.10;31.85;98821.91;5050997;28;20189;-59
2023/03/29 08:28:33;;;;;;;1.38;1.27;;;;;;;7.24;32.85;98817.75;5051701;28;20280;-59
2023/03/29 08:30:59;;;;;;;1.00;1.00;;;;;;;7.41;32.37;98840.91;5051674;28;20747;-59
2023/03/29 08:33:25;;;;;;;2.33;1.52;;;;;;;7.33;32.54;98809.56;5051901;28;20191;-60
2023/03/29 08:35:50;;;;;;;1.30;0.98;;;;;;;7.11;31.79;98711.16;5051536;28;20228;-59
2023/03/29 08:38:15;;;;;;;1.63;1.40;;;;;;;7.83;31.66;98831.06;5051564;28;20223;-59
2023/03/29 08:40:41;;;;;;;1.10;1.10;;;;;;;7.91;31.67;98818.59;5051423;28;20580;-59
2023/03/29 08:43:21;;;;;;;2.80;1.70;;;;;;;8.02;30.99;98842.09;5051479;28;20209;-59
2023/03/29 08:45:49;;;;;;;1.20;1.10;;;;;;;7.96;30.91;98850.13;5051464;28;20191;-59
2023/03/29 08:48:30;;;;;;;1.98;1.80;;;;;;;7.39;30.69;98747.47;5051414;28;20184;-59
2023/03/29 08:51:03;;;;;;;3.58;2.63;;;;;;;7.71;30.99;98800.78;5070658;28;20189;-59
2023/03/29 08:53:41;;;;;;;1.40;1.30;;;;;;;7.76;31.43;98777.34;5071583;28;20689;-59
2023/03/29 08:56:12;;;;;;;1.77;1.67;;;;;;;7.84;31.51;98781.19;5067428;28;20738;-59
2023/03/29 08:58:38;;;;;;;1.38;1.27;;;;;;;7.79;30.90;98772.88;5033749;28;20210;-59
2023/03/29 09:01:08;;;;;;;0.90;0.90;;;;;;;8.00;30.47;98827.59;5033575;28;20182;-59
2023/03/29 09:03:46;;;;;;;2.28;1.50;;;;;;;7.83;30.71;98810.44;5033488;28;20193;-59
2023/03/29 09:06:12;;;;;;;1.27;1.17;;;;;;;7.90;30.48;98824.69;5033593;28;20601;-59
2023/03/29 09:08:43;;;;;;;4.53;1.40;;;;;;;7.95;30.41;98840.72;5033477;28;20182;-59
2023/03/29 09:11:21;;;;;;;1.55;1.45;;;;;;;7.93;29.56;98836.56;5033675;28;20201;-59
2023/03/29 09:14:02;;;;;;;1.25;1.25;;;;;;;7.29;30.42;98714.56;5050898;28;20189;-59
2023/03/29 09:16:49;;;;;;;1.95;1.20;;;;;;;8.11;31.07;98820.97;5050877;28;20174;-59
2023/03/29 09:19:36;;;;;;;1.70;1.60;;;;;;;8.26;31.76;98811.63;5070543;28;20270;-60
2023/03/29 09:22:24;;;;;;;1.35;1.25;;;;;;;8.02;31.91;98787.13;5070677;28;20797;-59
2023/03/29 09:25:20;;;;;;;1.73;1.63;;;;;;;8.11;31.64;98820.16;5070667;28;20677;-59
2023/03/29 09:27:59;;;;;;;1.55;1.40;;;;;;;8.10;30.94;98819.31;5070651;28;20184;-59
2023/03/29 09:30:31;;;;;;;2.20;1.20;;;;;;;8.16;30.94;98825.91;5070641;28;20281;-59
2023/03/29 09:33:20;;;;;;;1.98;1.30;;;;;;;8.17;29.65;98851.63;5070418;28;20204;-59
2023/03/29 09:35:56;;;;;;;2.08;1.52;;;;;;;7.74;29.27;98737.97;5070428;28;20162;-59
2023/03/29 09:38:22;;;;;;;1.33;1.25;;;;;;;8.05;30.07;98813.56;5070421;28;20576;-59
2023/03/29 09:40:56;;;;;;;1.60;1.50;;;;;;;7.59;30.56;98719.00;5070227;28;20216;-59
2023/03/29 09:43:32;;;;;;;3.17;1.77;;;;;;;7.96;30.73;98753.94;5070418;28;20201;-59
2023/03/29 09:46:03;;;;;;;1.55;1.45;;;;;;;7.72;30.39;98704.56;5070261;28;20189;-59
2023/03/29 09:48:33;;;;;;;4.28;1.25;;;;;;;7.77;30.82;98696.59;5070345;28;20173;-60
2023/03/29 09:51:00;;;;;;;2.00;1.70;;;;;;;8.41;30.79;98788.47;5039858;28;20200;-60
2023/03/29 09:53:25;;;;;;;2.55;1.50;;;;;;;8.52;30.70;98795.63;5032764;28;20668;-60
2023/03/29 09:55:51;;;;;;;1.63;1.52;;;;;;;8.72;30.29;98809.09;5032375;28;20228;-60
2023/03/29 09:58:23;;;;;;;2.03;1.70;;;;;;;8.74;29.45;98776.31;5032607;28;20563;-60
2023/03/29 10:00:49;;;;;;;1.45;1.23;;;;;;;8.95;28.66;98811.25;5032197;28;20754;-60
2023/03/29 10:03:20;;;;;;;1.65;1.45;;;;;;;8.31;28.62;98717.69;5052567;28;20208;-60
2023/03/29 10:05:50;;;;;;;1.63;1.30;;;;;;;8.82;28.88;98791.38;5049646;28;20198;-60
2023/03/29 10:08:26;;;;;;;1.27;1.27;;;;;;;8.75;28.65;98762.47;5049388;28;20288;-60
2023/03/29 10:10:52;;;;;;;1.35;1.10;;;;;;;8.50;29.08;98691.75;5049684;28;20169;-60
2023/03/29 10:13:22;;;;;;;1.30;1.23;;;;;;;9.20;29.42;98796.03;5049631;28;20181;-62
2023/03/29 10:16:00;;;;;;;1.55;1.45;;;;;;;9.35;29.37;98779.69;5049593;28;20185;-59
2023/03/29 10:18:26;;;;;;;1.70;1.60;;;;;;;9.50;28.35;98781.34;5049545;28;20186;-59
2023/03/29 10:20:58;;;;;;;1.92;1.80;;;;;;;9.76;28.16;98770.34;5049484;28;20653;-59
2023/03/29 10:23:32;;;;;;;4.25;2.10;;;;;;;9.78;28.41;98784.84;5049614;28;20217;-59
2023/03/29 10:25:59;;;;;;;1.40;1.02;;;;;;;9.23;28.07;98696.91;5049511;28;20553;-60
2023/03/29 10:28:26;;;;;;;1.83;1.45;;;;;;;9.52;28.43;98731.28;5049369;28;20197;-59
2023/03/29 10:30:58;;;;;;;1.40;1.30;;;;;;;9.98;27.92;98762.97;5049456;28;20651;-59
2023/03/29 10:33:26;;;;;;;1.30;1.30;;;;;;;10.17;27.77;98776.47;5046759;28;20186;-59
2023/03/29 10:35:57;;;;;;;1.50;1.38;;;;;;;10.11;27.49;98730.28;5031691;28;20240;-59
2023/03/29 10:38:27;;;;;;;1.30;1.20;;;;;;;9.57;26.52;98660.44;5032021;28;20197;-59
2023/03/29 10:40:54;;;;;;;2.10;1.83;;;;;;;10.14;27.25;98730.09;5032100;28;20198;-59
2023/03/29 10:43:44;;;;;;;1.60;1.42;;;;;;;10.45;27.32;98737.63;5031874;28;20198;-60
2023/03/29 10:46:16;;;;;;;2.55;1.42;;;;;;;10.45;27.64;98738.44;5029361;28;20716;-60
2023/03/29 10:48:46;;;;;;;1.10;1.10;;;;;;;10.67;28.15;98745.66;5031537;28;20190;-60
2023/03/29 10:51:13;;;;;;;1.75;1.00;;;;;;;10.51;28.33;98726.88;5033547;28;20572;-60
2023/03/29 10:53:39;;;;;;;1.17;1.13;;;;;;;10.82;26.66;98792.13;5033380;28;20193;-60
2023/03/29 10:56:23;;;;;;;1.05;1.05;;;;;;;10.68;25.91;98744.78;5033183;28;20252;-60
2023/03/29 10:58:58;;;;;;;1.25;1.20;;;;;;;10.91;26.22;98744.94;5033234;28;20183;-60
2023/03/29 11:01:31;;;;;;;1.58;1.48;;;;;;;10.57;25.27;98704.03;5033275;28;20271;-60
2023/03/29 11:03:57;;;;;;;1.98;1.13;;;;;;;10.46;25.38;98690.13;5033113;28;20686;-60
2023/03/29 11:06:33;;;;;;;4.75;1.38;;;;;;;10.87;25.36;98717.63;5033118;28;20174;-60
2023/03/29 11:09:13;;;;;;;1.17;1.15;;;;;;;11.00;24.92;98713.28;5033203;28;20228;-60
2023/03/29 11:12:23;;;;;;;1.60;1.50;;;;;;;11.43;24.43;98721.66;5031894;28;20201;-60
2023/03/29 11:14:54;;;;;;;1.30;1.20;;;;;;;10.78;24.35;98642.28;5031966;28;20197;-60
2023/03/29 11:17:38;;;;;;;1.33;1.00;;;;;;;11.39;24.63;98715.81;5033230;28;20190;-60
2023/03/29 11:20:25;;;;;;;3.15;1.20;;;;;;;11.65;24.82;98693.34;5013263;28;20222;-60
2023/03/29 11:22:57;;;;;;;1.00;1.00;;;;;;;12.05;24.32;98694.84;5020355;28;20183;-59
2023/03/29 11:25:32;;;;;;;1.13;1.10;;;;;;;12.16;24.45;98707.91;5033018;28;20673;-60
2023/03/29 11:28:11;;;;;;;3.90;1.20;;;;;;;11.88;24.76;98641.59;5032844;28;20170;-60
2023/03/29 11:30:46;;;;;;;1.33;0.98;;;;;;;12.15;24.44;98691.53;5033277;28;20197;-60
2023/03/29 11:33:26;;;;;;;2.25;2.03;;;;;;;12.33;24.51;98679.00;5032880;28;20244;-60
2023/03/29 11:36:03;;;;;;;1.30;1.20;;;;;;;12.20;24.12;98615.97;5032865;28;20340;-60
2023/03/29 11:38:41;;;;;;;1.17;1.10;;;;;;;12.06;22.77;98613.50;5032571;28;20193;-60
2023/03/29 11:41:14;;;;;;;1.88;1.17;;;;;;;12.42;23.26;98648.03;5032371;28;20222;-60
2023/03/29 11:43:47;;;;;;;2.83;1.48;;;;;;;12.32;22.89;98602.13;5032560;28;20167;-60
2023/03/29 11:46:18;;;;;;;3.33;1.40;;;;;;;12.90;23.07;98674.81;5032425;28;20693;-60
2023/03/29 11:48:52;;;;;;;5.22;1.33;;;;;;;12.93;22.67;98662.41;5032671;28;20256;-60
2023/03/29 11:51:27;;;;;;;1.15;1.08;;;;;;;13.04;21.96;98688.47;5033588;28;20190;-60
2023/03/29 11:54:17;;;;;;;1.30;1.10;;;;;;;13.13;21.72;98705.13;5034698;28;20625;-60